PWSweather.com
Personal Weather Stations
Station Observations
WAREHAM1
West Wareham, MA 02576

West Wareham, MA 02576

Lat: 41.7961059, Lon: -70.775612

Elevation: 88

Station Type: Davis Vantage Vue

http://www.gateway2capecod.com

High Low Average
Temperature 63.9°F17.7°F 47.7°F8.7°F 57.9°F14.4°F
Dew Point 55.6°F13.1°F 43.5°F6.4°F 50.4°F10.2°F
Winds 4.0 mph WNW6.4 mph WNW Calm Calm 0.6 mph 1.0 mph
Wind Gusts 12.1 mph19.5 mph -- 3.1 mph5.0 mph
Humidity 95% 49% 78%
Pressure 30.11 in1019.60 in 30.06 in1017.90 in -
Precipitation 0.58 in14.70 in - -
Hour Temp Dew Point Humidity Winds Wind Gusts Pressure Precip Precip Rate Daily Precip Total
12:09 AM 58.6°F14.8°C 55.4°F13.0°C 89% 0.9 mph ENE1.4 kmh ENE 4.0 mph6.4 kmh 30.06 in1017.9 mb 0.04 in1.0 mm 0.27 in6.9 mm 0.02 in0.5 mm
12:19 AM 57.9°F14.4°C 55.2°F12.9°C 91% 0.9 mph N1.4 kmh N 4.0 mph6.4 kmh 30.08 in1018.6 mb 0.04 in1.0 mm 0.00 in0.0 mm 0.02 in0.5 mm
12:29 AM 57.7°F14.3°C 55.4°F13.0°C 92% Calm Calm 2.9 mph4.7 kmh 30.08 in1018.6 mb 0.06 in1.5 mm 0.12 in3.0 mm 0.04 in1.0 mm
12:39 AM 57.6°F14.2°C 55.2°F12.9°C 92% Calm Calm 2.9 mph4.7 kmh 30.08 in1018.6 mb 0.06 in1.5 mm 0.00 in0.0 mm 0.04 in1.0 mm
12:49 AM 57.6°F14.2°C 55.6°F13.1°C 93% Calm Calm 2.0 mph3.2 kmh 30.07 in1018.3 mb 0.06 in1.5 mm 0.00 in0.0 mm 0.04 in1.0 mm
12:59 AM 57.6°F14.2°C 55.6°F13.1°C 93% Calm Calm 3.0 mph4.8 kmh 30.07 in1018.3 mb 0.05 in1.3 mm 0.00 in0.0 mm 0.05 in1.3 mm
01:09 AM 57.2°F14.0°C 55.2°F12.9°C 93% 0.9 mph NW1.4 kmh NW 4.9 mph7.9 kmh 30.08 in1018.6 mb 0.03 in0.8 mm 0.00 in0.0 mm 0.05 in1.3 mm
01:19 AM 56.5°F13.6°C 54.5°F12.5°C 93% 2.0 mph E3.2 kmh E 8.1 mph13.0 kmh 30.09 in1019.0 mb 0.03 in0.8 mm 0.00 in0.0 mm 0.05 in1.3 mm
01:29 AM 56.3°F13.5°C 54.3°F12.4°C 93% 0.9 mph WNW1.4 kmh WNW 4.0 mph6.4 kmh 30.09 in1019.0 mb 0.01 in0.3 mm 0.00 in0.0 mm 0.05 in1.3 mm
01:39 AM 56.3°F13.5°C 54.3°F12.4°C 93% Calm Calm 4.0 mph6.4 kmh 30.09 in1019.0 mb 0.01 in0.3 mm 0.00 in0.0 mm 0.05 in1.3 mm
01:49 AM 56.1°F13.4°C 54.5°F12.5°C 94% Calm Calm 2.9 mph4.7 kmh 30.08 in1018.6 mb 0.01 in0.3 mm 0.00 in0.0 mm 0.05 in1.3 mm
01:59 AM 56.3°F13.5°C 54.7°F12.6°C 94% Calm Calm 2.0 mph3.2 kmh 30.08 in1018.6 mb 0.00 in0.0 mm 0.00 in0.0 mm 0.05 in1.3 mm
02:09 AM 56.5°F13.6°C 54.9°F12.7°C 94% Calm Calm 2.0 mph3.2 kmh 30.08 in1018.6 mb 0.00 in0.0 mm 0.00 in0.0 mm 0.05 in1.3 mm
02:19 AM 56.7°F13.7°C 55.0°F12.8°C 94% Calm Calm 4.0 mph6.4 kmh 30.08 in1018.6 mb 0.00 in0.0 mm 0.00 in0.0 mm 0.05 in1.3 mm
02:29 AM 56.7°F13.7°C 55.0°F12.8°C 94% Calm Calm 0.9 mph1.4 kmh 30.07 in1018.3 mb 0.01 in0.3 mm 0.06 in1.5 mm 0.06 in1.5 mm
02:39 AM 56.7°F13.7°C 55.0°F12.8°C 94% Calm Calm 0.9 mph1.4 kmh 30.07 in1018.3 mb 0.02 in0.5 mm 0.06 in1.5 mm 0.07 in1.8 mm
02:49 AM 56.7°F13.7°C 55.2°F12.9°C 95% Calm Calm 0.9 mph1.4 kmh 30.07 in1018.3 mb 0.02 in0.5 mm 0.00 in0.0 mm 0.07 in1.8 mm
02:59 AM 56.7°F13.7°C 55.2°F12.9°C 95% Calm Calm 0.9 mph1.4 kmh 30.07 in1018.3 mb 0.02 in0.5 mm 0.00 in0.0 mm 0.07 in1.8 mm
03:09 AM 56.7°F13.7°C 55.0°F12.8°C 94% Calm Calm 1.0 mph1.6 kmh 30.07 in1018.3 mb 0.02 in0.5 mm 0.00 in0.0 mm 0.07 in1.8 mm
03:19 AM 56.5°F13.6°C 54.9°F12.7°C 94% Calm Calm 2.0 mph3.2 kmh 30.07 in1018.3 mb 0.02 in0.5 mm 0.00 in0.0 mm 0.07 in1.8 mm
03:29 AM 56.5°F13.6°C 55.0°F12.8°C 95% Calm Calm 1.0 mph1.6 kmh 30.07 in1018.3 mb 0.01 in0.3 mm 0.00 in0.0 mm 0.07 in1.8 mm
03:39 AM 56.5°F13.6°C 55.0°F12.8°C 95% Calm Calm 0.9 mph1.4 kmh 30.07 in1018.3 mb 0.00 in0.0 mm 0.00 in0.0 mm 0.07 in1.8 mm
03:49 AM 56.3°F13.5°C 54.9°F12.7°C 95% Calm Calm -- 30.07 in1018.3 mb 0.01 in0.3 mm 0.06 in1.5 mm 0.08 in2.0 mm
03:59 AM 56.3°F13.5°C 54.9°F12.7°C 95% Calm Calm -- 30.07 in1018.3 mb 0.01 in0.3 mm 0.00 in0.0 mm 0.08 in2.0 mm
04:09 AM 56.3°F13.5°C 54.9°F12.7°C 95% Calm Calm -- 30.07 in1018.3 mb 0.01 in0.3 mm 0.00 in0.0 mm 0.08 in2.0 mm
04:19 AM 56.5°F13.6°C 55.0°F12.8°C 95% Calm Calm -- 30.07 in1018.3 mb 0.01 in0.3 mm 0.00 in0.0 mm 0.08 in2.0 mm
04:29 AM 56.5°F13.6°C 55.0°F12.8°C 95% Calm Calm -- 30.07 in1018.3 mb 0.01 in0.3 mm 0.00 in0.0 mm 0.08 in2.0 mm
04:39 AM 56.3°F13.5°C 54.9°F12.7°C 95% Calm Calm 2.0 mph3.2 kmh 30.07 in1018.3 mb 0.01 in0.3 mm 0.00 in0.0 mm 0.08 in2.0 mm
04:49 AM 56.5°F13.6°C 55.0°F12.8°C 95% Calm Calm 0.9 mph1.4 kmh 30.07 in1018.3 mb 0.00 in0.0 mm 0.00 in0.0 mm 0.08 in2.0 mm
04:59 AM 56.3°F13.5°C 54.9°F12.7°C 95% Calm Calm 0.9 mph1.4 kmh 30.08 in1018.6 mb 0.00 in0.0 mm 0.00 in0.0 mm 0.08 in2.0 mm
05:09 AM 56.1°F13.4°C 54.7°F12.6°C 95% Calm Calm -- 30.08 in1018.6 mb 0.00 in0.0 mm 0.00 in0.0 mm 0.08 in2.0 mm
05:19 AM 56.1°F13.4°C 54.7°F12.6°C 95% Calm Calm -- 30.08 in1018.6 mb 0.00 in0.0 mm 0.00 in0.0 mm 0.08 in2.0 mm
05:29 AM 56.1°F13.4°C 54.7°F12.6°C 95% Calm Calm 0.9 mph1.4 kmh 30.08 in1018.6 mb 0.00 in0.0 mm 0.00 in0.0 mm 0.08 in2.0 mm
05:39 AM 56.3°F13.5°C 54.9°F12.7°C 95% Calm Calm -- 30.08 in1018.6 mb 0.00 in0.0 mm 0.00 in0.0 mm 0.08 in2.0 mm
05:49 AM 56.1°F13.4°C 54.7°F12.6°C 95% Calm Calm 0.9 mph1.4 kmh 30.09 in1019.0 mb 0.00 in0.0 mm 0.00 in0.0 mm 0.08 in2.0 mm
05:59 AM 56.3°F13.5°C 54.9°F12.7°C 95% Calm Calm 0.9 mph1.4 kmh 30.09 in1019.0 mb 0.00 in0.0 mm 0.00 in0.0 mm 0.08 in2.0 mm
06:09 AM 56.1°F13.4°C 54.7°F12.6°C 95% Calm Calm 1.0 mph1.6 kmh 30.09 in1019.0 mb 0.00 in0.0 mm 0.00 in0.0 mm 0.08 in2.0 mm
06:19 AM 56.1°F13.4°C 54.7°F12.6°C 95% Calm Calm -- 30.09 in1019.0 mb 0.00 in0.0 mm 0.00 in0.0 mm 0.08 in2.0 mm
06:29 AM 56.1°F13.4°C 54.7°F12.6°C 95% Calm Calm -- 30.09 in1019.0 mb 0.00 in0.0 mm 0.00 in0.0 mm 0.08 in2.0 mm
06:39 AM 55.9°F13.3°C 54.5°F12.5°C 95% Calm Calm -- 30.09 in1019.0 mb 0.00 in0.0 mm 0.00 in0.0 mm 0.08 in2.0 mm
06:49 AM 55.8°F13.2°C 54.3°F12.4°C 95% Calm Calm -- 30.09 in1019.0 mb 0.00 in0.0 mm 0.00 in0.0 mm 0.08 in2.0 mm
06:59 AM 55.8°F13.2°C 54.3°F12.4°C 95% Calm Calm -- 30.09 in1019.0 mb 0.00 in0.0 mm 0.00 in0.0 mm 0.08 in2.0 mm
07:09 AM 55.8°F13.2°C 54.3°F12.4°C 95% Calm Calm -- 30.09 in1019.0 mb 0.00 in0.0 mm 0.00 in0.0 mm 0.08 in2.0 mm
07:19 AM 55.9°F13.3°C 54.5°F12.5°C 95% Calm Calm -- 30.10 in1019.3 mb 0.00 in0.0 mm 0.00 in0.0 mm 0.08 in2.0 mm
07:29 AM 55.9°F13.3°C 54.5°F12.5°C 95% Calm Calm -- 30.10 in1019.3 mb 0.00 in0.0 mm 0.00 in0.0 mm 0.08 in2.0 mm
07:39 AM 56.1°F13.4°C 54.7°F12.6°C 95% Calm Calm 0.9 mph1.4 kmh 30.10 in1019.3 mb 0.00 in0.0 mm 0.00 in0.0 mm 0.08 in2.0 mm
07:49 AM 56.3°F13.5°C 54.9°F12.7°C 95% Calm Calm -- 30.10 in1019.3 mb 0.00 in0.0 mm 0.00 in0.0 mm 0.08 in2.0 mm
07:59 AM 56.5°F13.6°C 54.9°F12.7°C 94% Calm Calm -- 30.10 in1019.3 mb 0.00 in0.0 mm 0.00 in0.0 mm 0.08 in2.0 mm
08:09 AM 56.7°F13.7°C 54.7°F12.6°C 93% Calm Calm 3.0 mph4.8 kmh 30.10 in1019.3 mb 0.00 in0.0 mm 0.00 in0.0 mm 0.08 in2.0 mm
08:19 AM 57.2°F14.0°C 54.7°F12.6°C 91% Calm Calm 2.0 mph3.2 kmh 30.10 in1019.3 mb 0.00 in0.0 mm 0.00 in0.0 mm 0.08 in2.0 mm
08:29 AM 57.9°F14.4°C 54.1°F12.3°C 87% Calm Calm 2.0 mph3.2 kmh 30.10 in1019.3 mb 0.00 in0.0 mm 0.00 in0.0 mm 0.08 in2.0 mm
08:39 AM 58.6°F14.8°C 53.8°F12.1°C 84% Calm Calm 2.0 mph3.2 kmh 30.10 in1019.3 mb 0.00 in0.0 mm 0.00 in0.0 mm 0.08 in2.0 mm
08:49 AM 59.2°F15.1°C 53.1°F11.7°C 80% 0.9 mph ENE1.4 kmh ENE 8.1 mph13.0 kmh 30.10 in1019.3 mb 0.00 in0.0 mm 0.00 in0.0 mm 0.08 in2.0 mm
09:00 AM 59.7°F15.4°C 52.5°F11.4°C 77% 0.9 mph N1.4 kmh N 6.9 mph11.1 kmh 30.10 in1019.3 mb 0.00 in0.0 mm 0.00 in0.0 mm 0.08 in2.0 mm
09:10 AM 60.4°F15.8°C 52.9°F11.6°C 76% Calm Calm 4.0 mph6.4 kmh 30.10 in1019.3 mb 0.00 in0.0 mm 0.00 in0.0 mm 0.08 in2.0 mm
09:20 AM 60.6°F15.9°C 51.6°F10.9°C 72% 2.0 mph NE3.2 kmh NE 11.0 mph17.7 kmh 30.10 in1019.3 mb 0.00 in0.0 mm 0.00 in0.0 mm 0.08 in2.0 mm
09:30 AM 60.6°F15.9°C 51.6°F10.9°C 72% 2.0 mph ENE3.2 kmh ENE 6.9 mph11.1 kmh 30.10 in1019.3 mb 0.00 in0.0 mm 0.00 in0.0 mm 0.08 in2.0 mm
09:40 AM 60.4°F15.8°C 52.2°F11.2°C 74% 0.9 mph NE1.4 kmh NE 4.9 mph7.9 kmh 30.10 in1019.3 mb 0.00 in0.0 mm 0.00 in0.0 mm 0.08 in2.0 mm
09:50 AM 61.9°F16.6°C 52.7°F11.5°C 72% 0.9 mph NE1.4 kmh NE 6.0 mph9.7 kmh 30.10 in1019.3 mb 0.00 in0.0 mm 0.00 in0.0 mm 0.08 in2.0 mm
10:00 AM 61.7°F16.5°C 51.4°F10.8°C 69% 2.0 mph E3.2 kmh E 8.1 mph13.0 kmh 30.10 in1019.3 mb 0.00 in0.0 mm 0.00 in0.0 mm 0.08 in2.0 mm
10:10 AM 62.4°F16.9°C 51.8°F11.0°C 68% 2.0 mph NW3.2 kmh NW 6.9 mph11.1 kmh 30.10 in1019.3 mb 0.00 in0.0 mm 0.00 in0.0 mm 0.08 in2.0 mm
10:20 AM 62.1°F16.7°C 51.8°F11.0°C 69% 0.9 mph WNW1.4 kmh WNW 7.0 mph11.3 kmh 30.10 in1019.3 mb 0.00 in0.0 mm 0.00 in0.0 mm 0.08 in2.0 mm
10:30 AM 61.7°F16.5°C 51.4°F10.8°C 69% 0.9 mph NW1.4 kmh NW 5.0 mph8.0 kmh 30.10 in1019.3 mb 0.00 in0.0 mm 0.00 in0.0 mm 0.08 in2.0 mm
10:40 AM 62.4°F16.9°C 51.3°F10.7°C 67% 0.9 mph E1.4 kmh E 6.0 mph9.7 kmh 30.11 in1019.6 mb 0.00 in0.0 mm 0.00 in0.0 mm 0.08 in2.0 mm
10:50 AM 63.1°F17.3°C 52.0°F11.1°C 67% 2.0 mph ENE3.2 kmh ENE 6.0 mph9.7 kmh 30.11 in1019.6 mb 0.00 in0.0 mm 0.00 in0.0 mm 0.08 in2.0 mm
11:00 AM 63.0°F17.2°C 51.4°F10.8°C 66% 0.9 mph E1.4 kmh E 11.0 mph17.7 kmh 30.11 in1019.6 mb 0.00 in0.0 mm 0.00 in0.0 mm 0.08 in2.0 mm
11:10 AM 63.0°F17.2°C 50.2°F10.1°C 63% 4.0 mph WNW6.4 kmh WNW 10.1 mph16.3 kmh 30.11 in1019.6 mb 0.00 in0.0 mm 0.00 in0.0 mm 0.08 in2.0 mm
11:20 AM 62.6°F17.0°C 48.9°F9.4°C 61% 0.9 mph ESE1.4 kmh ESE 4.9 mph7.9 kmh 30.11 in1019.6 mb 0.00 in0.0 mm 0.00 in0.0 mm 0.08 in2.0 mm
11:30 AM 63.3°F17.4°C 47.3°F8.5°C 56% 2.0 mph ENE3.2 kmh ENE 9.0 mph14.5 kmh 30.10 in1019.3 mb 0.00 in0.0 mm 0.00 in0.0 mm 0.08 in2.0 mm
11:40 AM 63.5°F17.5°C 46.0°F7.8°C 53% 2.9 mph NE4.7 kmh NE 11.0 mph17.7 kmh 30.11 in1019.6 mb 0.00 in0.0 mm 0.00 in0.0 mm 0.08 in2.0 mm
11:50 AM 63.9°F17.7°C 46.4°F8.0°C 53% 2.0 mph NE3.2 kmh NE 8.1 mph13.0 kmh 30.10 in1019.3 mb 0.00 in0.0 mm 0.00 in0.0 mm 0.08 in2.0 mm
12:00 PM 63.1°F17.3°C 49.8°F9.9°C 62% 2.9 mph NNE4.7 kmh NNE 12.1 mph19.5 kmh 30.10 in1019.3 mb 0.00 in0.0 mm 0.00 in0.0 mm 0.08 in2.0 mm
12:10 PM 62.4°F16.9°C 48.7°F9.3°C 61% 2.0 mph NW3.2 kmh NW 8.1 mph13.0 kmh 30.10 in1019.3 mb 0.00 in0.0 mm 0.00 in0.0 mm 0.08 in2.0 mm
12:20 PM 63.1°F17.3°C 49.8°F9.9°C 62% 0.9 mph NE1.4 kmh NE 8.1 mph13.0 kmh 30.10 in1019.3 mb 0.00 in0.0 mm 0.00 in0.0 mm 0.08 in2.0 mm
12:30 PM 62.4°F16.9°C 48.4°F9.1°C 60% 2.0 mph NE3.2 kmh NE 10.1 mph16.3 kmh 30.11 in1019.6 mb 0.00 in0.0 mm 0.00 in0.0 mm 0.08 in2.0 mm
12:40 PM 62.2°F16.8°C 48.2°F9.0°C 60% 2.9 mph NE4.7 kmh NE 11.0 mph17.7 kmh 30.10 in1019.3 mb 0.00 in0.0 mm 0.00 in0.0 mm 0.08 in2.0 mm
12:50 PM 62.8°F17.1°C 47.8°F8.8°C 58% 2.9 mph NE4.7 kmh NE 11.0 mph17.7 kmh 30.10 in1019.3 mb 0.00 in0.0 mm 0.00 in0.0 mm 0.08 in2.0 mm
01:00 PM 63.0°F17.2°C 48.0°F8.9°C 58% 0.9 mph ENE1.4 kmh ENE 6.9 mph11.1 kmh 30.10 in1019.3 mb 0.00 in0.0 mm 0.00 in0.0 mm 0.08 in2.0 mm
01:10 PM 62.6°F17.0°C 46.8°F8.2°C 56% 2.0 mph WNW3.2 kmh WNW 7.0 mph11.3 kmh 30.10 in1019.3 mb 0.00 in0.0 mm 0.00 in0.0 mm 0.08 in2.0 mm
01:20 PM 63.3°F17.4°C 47.8°F8.8°C 57% 0.9 mph E1.4 kmh E 4.9 mph7.9 kmh 30.09 in1019.0 mb 0.00 in0.0 mm 0.00 in0.0 mm 0.08 in2.0 mm
01:30 PM 62.8°F17.1°C 47.8°F8.8°C 58% 2.0 mph S3.2 kmh S 8.9 mph14.3 kmh 30.09 in1019.0 mb 0.00 in0.0 mm 0.00 in0.0 mm 0.08 in2.0 mm
01:40 PM 62.8°F17.1°C 46.9°F8.3°C 56% 2.0 mph NE3.2 kmh NE 6.9 mph11.1 kmh 30.09 in1019.0 mb 0.00 in0.0 mm 0.00 in0.0 mm 0.08 in2.0 mm
01:50 PM 62.8°F17.1°C 46.9°F8.3°C 56% 2.9 mph NE4.7 kmh NE 9.0 mph14.5 kmh 30.09 in1019.0 mb 0.00 in0.0 mm 0.00 in0.0 mm 0.08 in2.0 mm
02:00 PM 62.8°F17.1°C 46.9°F8.3°C 56% 2.9 mph NNE4.7 kmh NNE 8.9 mph14.3 kmh 30.08 in1018.6 mb 0.00 in0.0 mm 0.00 in0.0 mm 0.08 in2.0 mm
02:10 PM 62.6°F17.0°C 44.2°F6.8°C 51% 4.0 mph WNW6.4 kmh WNW 11.0 mph17.7 kmh 30.08 in1018.6 mb 0.00 in0.0 mm 0.00 in0.0 mm 0.08 in2.0 mm
02:20 PM 62.4°F16.9°C 43.5°F6.4°C 50% 2.0 mph NNE3.2 kmh NNE 9.0 mph14.5 kmh 30.08 in1018.6 mb 0.00 in0.0 mm 0.00 in0.0 mm 0.08 in2.0 mm
02:30 PM 62.8°F17.1°C 44.4°F6.9°C 51% 2.0 mph N3.2 kmh N 10.1 mph16.3 kmh 30.08 in1018.6 mb 0.00 in0.0 mm 0.00 in0.0 mm 0.08 in2.0 mm
02:40 PM 63.3°F17.4°C 44.4°F6.9°C 50% 2.0 mph NW3.2 kmh NW 8.9 mph14.3 kmh 30.08 in1018.6 mb 0.00 in0.0 mm 0.00 in0.0 mm 0.08 in2.0 mm
02:50 PM 63.7°F17.6°C 44.2°F6.8°C 49% 0.9 mph NE1.4 kmh NE 4.9 mph7.9 kmh 30.08 in1018.6 mb 0.00 in0.0 mm 0.00 in0.0 mm 0.08 in2.0 mm
03:00 PM 63.1°F17.3°C 43.7°F6.5°C 49% 2.0 mph E3.2 kmh E 9.0 mph14.5 kmh 30.08 in1018.6 mb 0.00 in0.0 mm 0.00 in0.0 mm 0.08 in2.0 mm
03:10 PM 62.8°F17.1°C 45.3°F7.4°C 53% 2.0 mph E3.2 kmh E 6.0 mph9.7 kmh 30.08 in1018.6 mb 0.00 in0.0 mm 0.00 in0.0 mm 0.08 in2.0 mm
03:20 PM 62.1°F16.7°C 44.8°F7.1°C 53% 0.9 mph ENE1.4 kmh ENE 4.9 mph7.9 kmh 30.07 in1018.3 mb 0.00 in0.0 mm 0.00 in0.0 mm 0.08 in2.0 mm
03:30 PM 62.4°F16.9°C 45.1°F7.3°C 53% 0.9 mph NE1.4 kmh NE 6.9 mph11.1 kmh 30.07 in1018.3 mb 0.00 in0.0 mm 0.00 in0.0 mm 0.08 in2.0 mm
03:40 PM 62.8°F17.1°C 45.3°F7.4°C 53% 0.9 mph ENE1.4 kmh ENE 4.9 mph7.9 kmh 30.06 in1017.9 mb 0.00 in0.0 mm 0.00 in0.0 mm 0.08 in2.0 mm
03:50 PM 62.6°F17.0°C 45.7°F7.6°C 54% 0.9 mph NE1.4 kmh NE 5.0 mph8.0 kmh 30.06 in1017.9 mb 0.00 in0.0 mm 0.00 in0.0 mm 0.08 in2.0 mm
04:00 PM 63.0°F17.2°C 45.5°F7.5°C 53% 0.9 mph ENE1.4 kmh ENE 6.0 mph9.7 kmh 30.06 in1017.9 mb 0.00 in0.0 mm 0.00 in0.0 mm 0.08 in2.0 mm
04:10 PM 63.1°F17.3°C 45.1°F7.3°C 52% 0.9 mph NNE1.4 kmh NNE 4.0 mph6.4 kmh 30.06 in1017.9 mb 0.00 in0.0 mm 0.00 in0.0 mm 0.08 in2.0 mm
04:20 PM 62.8°F17.1°C 45.3°F7.4°C 53% 0.9 mph E1.4 kmh E 2.9 mph4.7 kmh 30.07 in1018.3 mb 0.00 in0.0 mm 0.00 in0.0 mm 0.08 in2.0 mm
04:30 PM 62.2°F16.8°C 45.9°F7.7°C 55% Calm Calm 2.9 mph4.7 kmh 30.06 in1017.9 mb 0.00 in0.0 mm 0.00 in0.0 mm 0.08 in2.0 mm
04:40 PM 62.4°F16.9°C 45.5°F7.5°C 54% Calm Calm 2.9 mph4.7 kmh 30.06 in1017.9 mb 0.00 in0.0 mm 0.00 in0.0 mm 0.08 in2.0 mm
04:50 PM 62.8°F17.1°C 46.4°F8.0°C 55% Calm Calm 2.0 mph3.2 kmh 30.07 in1018.3 mb 0.00 in0.0 mm 0.00 in0.0 mm 0.08 in2.0 mm
05:00 PM 62.4°F16.9°C 45.5°F7.5°C 54% Calm Calm 0.9 mph1.4 kmh 30.06 in1017.9 mb 0.00 in0.0 mm 0.00 in0.0 mm 0.08 in2.0 mm
05:10 PM 62.2°F16.8°C 46.8°F8.2°C 57% Calm Calm -- 30.06 in1017.9 mb 0.00 in0.0 mm 0.00 in0.0 mm 0.08 in2.0 mm
05:20 PM 61.5°F16.4°C 47.1°F8.4°C 59% Calm Calm -- 30.07 in1018.3 mb 0.00 in0.0 mm 0.00 in0.0 mm 0.08 in2.0 mm
05:30 PM 61.2°F16.2°C 47.7°F8.7°C 61% Calm Calm -- 30.07 in1018.3 mb 0.00 in0.0 mm 0.00 in0.0 mm 0.08 in2.0 mm
05:40 PM 61.0°F16.1°C 48.4°F9.1°C 63% Calm Calm 2.0 mph3.2 kmh 30.07 in1018.3 mb 0.00 in0.0 mm 0.00 in0.0 mm 0.08 in2.0 mm
05:50 PM 60.4°F15.8°C 48.2°F9.0°C 64% Calm Calm -- 30.07 in1018.3 mb 0.00 in0.0 mm 0.00 in0.0 mm 0.08 in2.0 mm
06:00 PM 59.9°F15.5°C 48.0°F8.9°C 65% Calm Calm 0.9 mph1.4 kmh 30.07 in1018.3 mb 0.00 in0.0 mm 0.00 in0.0 mm 0.08 in2.0 mm
06:10 PM 59.4°F15.2°C 48.4°F9.1°C 67% Calm Calm -- 30.08 in1018.6 mb 0.00 in0.0 mm 0.00 in0.0 mm 0.08 in2.0 mm
06:20 PM 58.6°F14.8°C 48.6°F9.2°C 69% Calm Calm -- 30.08 in1018.6 mb 0.00 in0.0 mm 0.00 in0.0 mm 0.08 in2.0 mm
06:30 PM 58.1°F14.5°C 48.4°F9.1°C 70% Calm Calm -- 30.08 in1018.6 mb 0.00 in0.0 mm 0.00 in0.0 mm 0.08 in2.0 mm
06:40 PM 57.6°F14.2°C 48.6°F9.2°C 72% Calm Calm -- 30.08 in1018.6 mb 0.00 in0.0 mm 0.00 in0.0 mm 0.08 in2.0 mm
06:50 PM 56.8°F13.8°C 48.2°F9.0°C 73% Calm Calm -- 30.08 in1018.6 mb 0.00 in0.0 mm 0.00 in0.0 mm 0.08 in2.0 mm
07:00 PM 56.1°F13.4°C 48.4°F9.1°C 75% Calm Calm -- 30.09 in1019.0 mb 0.00 in0.0 mm 0.00 in0.0 mm 0.08 in2.0 mm
07:10 PM 55.4°F13.0°C 48.4°F9.1°C 77% Calm Calm -- 30.09 in1019.0 mb 0.00 in0.0 mm 0.00 in0.0 mm 0.08 in2.0 mm
07:20 PM 55.0°F12.8°C 48.4°F9.1°C 78% Calm Calm -- 30.09 in1019.0 mb 0.00 in0.0 mm 0.00 in0.0 mm 0.08 in2.0 mm
07:30 PM 54.7°F12.6°C 48.4°F9.1°C 79% Calm Calm -- 30.09 in1019.0 mb 0.00 in0.0 mm 0.00 in0.0 mm 0.08 in2.0 mm
07:40 PM 54.1°F12.3°C 48.0°F8.9°C 80% Calm Calm -- 30.09 in1019.0 mb 0.00 in0.0 mm 0.00 in0.0 mm 0.08 in2.0 mm
07:50 PM 53.8°F12.1°C 48.4°F9.1°C 82% Calm Calm -- 30.10 in1019.3 mb 0.00 in0.0 mm 0.00 in0.0 mm 0.08 in2.0 mm
08:00 PM 53.4°F11.9°C 48.4°F9.1°C 83% Calm Calm -- 30.10 in1019.3 mb 0.00 in0.0 mm 0.00 in0.0 mm 0.08 in2.0 mm
08:10 PM 54.0°F12.2°C 49.3°F9.6°C 84% Calm Calm -- 30.10 in1019.3 mb 0.00 in0.0 mm 0.00 in0.0 mm 0.08 in2.0 mm
08:20 PM 54.0°F12.2°C 49.3°F9.6°C 84% Calm Calm -- 30.10 in1019.3 mb 0.00 in0.0 mm 0.00 in0.0 mm 0.08 in2.0 mm
08:30 PM 53.6°F12.0°C 48.9°F9.4°C 84% Calm Calm -- 30.10 in1019.3 mb 0.00 in0.0 mm 0.00 in0.0 mm 0.08 in2.0 mm
08:40 PM 53.1°F11.7°C 48.7°F9.3°C 85% Calm Calm -- 30.10 in1019.3 mb 0.00 in0.0 mm 0.00 in0.0 mm 0.08 in2.0 mm
08:50 PM 52.5°F11.4°C 48.2°F9.0°C 85% Calm Calm -- 30.11 in1019.6 mb 0.00 in0.0 mm 0.00 in0.0 mm 0.08 in2.0 mm
09:00 PM 52.5°F11.4°C 48.4°F9.1°C 86% Calm Calm -- 30.11 in1019.6 mb 0.00 in0.0 mm 0.00 in0.0 mm 0.08 in2.0 mm
09:10 PM 52.9°F11.6°C 49.1°F9.5°C 87% Calm Calm -- 30.11 in1019.6 mb 0.00 in0.0 mm 0.00 in0.0 mm 0.08 in2.0 mm
09:20 PM 52.9°F11.6°C 48.7°F9.3°C 86% Calm Calm -- 30.11 in1019.6 mb 0.00 in0.0 mm 0.00 in0.0 mm 0.08 in2.0 mm
09:30 PM 52.9°F11.6°C 49.1°F9.5°C 87% Calm Calm -- 30.11 in1019.6 mb 0.00 in0.0 mm 0.00 in0.0 mm 0.08 in2.0 mm
09:40 PM 52.5°F11.4°C 48.7°F9.3°C 87% Calm Calm -- 30.11 in1019.6 mb 0.00 in0.0 mm 0.00 in0.0 mm 0.08 in2.0 mm
09:50 PM 52.2°F11.2°C 48.7°F9.3°C 88% Calm Calm -- 30.11 in1019.6 mb 0.00 in0.0 mm 0.00 in0.0 mm 0.08 in2.0 mm
10:00 PM 52.0°F11.1°C 48.6°F9.2°C 88% Calm Calm -- 30.11 in1019.6 mb 0.00 in0.0 mm 0.00 in0.0 mm 0.08 in2.0 mm
10:10 PM 52.0°F11.1°C 48.6°F9.2°C 88% Calm Calm -- 30.11 in1019.6 mb 0.00 in0.0 mm 0.00 in0.0 mm 0.08 in2.0 mm
10:20 PM 51.6°F10.9°C 48.2°F9.0°C 88% Calm Calm 1.0 mph1.6 kmh 30.11 in1019.6 mb 0.00 in0.0 mm 0.00 in0.0 mm 0.08 in2.0 mm
10:30 PM 51.1°F10.6°C 47.7°F8.7°C 88% Calm Calm -- 30.11 in1019.6 mb 0.00 in0.0 mm 0.00 in0.0 mm 0.08 in2.0 mm
10:40 PM 50.4°F10.2°C 46.9°F8.3°C 88% Calm Calm -- 30.11 in1019.6 mb 0.00 in0.0 mm 0.00 in0.0 mm 0.08 in2.0 mm
10:50 PM 50.0°F10.0°C 46.6°F8.1°C 88% Calm Calm -- 30.11 in1019.6 mb 0.00 in0.0 mm 0.00 in0.0 mm 0.08 in2.0 mm
11:00 PM 49.5°F9.7°C 46.0°F7.8°C 88% Calm Calm -- 30.11 in1019.6 mb 0.00 in0.0 mm 0.00 in0.0 mm 0.08 in2.0 mm
11:10 PM 48.9°F9.4°C 45.5°F7.5°C 88% Calm Calm -- 30.11 in1019.6 mb 0.00 in0.0 mm 0.00 in0.0 mm 0.08 in2.0 mm
11:20 PM 48.6°F9.2°C 45.5°F7.5°C 89% Calm Calm -- 30.11 in1019.6 mb 0.00 in0.0 mm 0.00 in0.0 mm 0.08 in2.0 mm
11:30 PM 48.0°F8.9°C 45.0°F7.2°C 89% Calm Calm -- 30.11 in1019.6 mb 0.00 in0.0 mm 0.00 in0.0 mm 0.08 in2.0 mm
11:40 PM 47.8°F8.8°C 45.0°F7.2°C 90% Calm Calm -- 30.11 in1019.6 mb 0.00 in0.0 mm 0.00 in0.0 mm 0.08 in2.0 mm
11:50 PM 47.7°F8.7°C 45.0°F7.2°C 90% Calm Calm -- 30.11 in1019.6 mb 0.00 in0.0 mm 0.00 in0.0 mm 0.08 in2.0 mm